sensor_id;sensor_type;location;lat;lon;timestamp;pressure;altitude;pressure_sealevel;temperature;humidity
32181;BME280;19172;51.504;3.894;2022-11-18T00:01:18;99260.81;;;15.69;97.99
32181;BME280;19172;51.504;3.894;2022-11-18T00:03:46;99258.66;;;15.57;98.83
32181;BME280;19172;51.504;3.894;2022-11-18T00:06:20;99261.75;;;15.47;98.25
32181;BME280;19172;51.504;3.894;2022-11-18T00:08:49;99260.34;;;15.16;99.08
32181;BME280;19172;51.504;3.894;2022-11-18T00:11:19;99263.19;;;15.55;99.57
32181;BME280;19172;51.504;3.894;2022-11-18T00:14:12;99268.31;;;15.38;98.51
32181;BME280;19172;51.504;3.894;2022-11-18T00:16:56;99273.97;;;15.52;99.10
32181;BME280;19172;51.504;3.894;2022-11-18T00:19:27;99272.84;;;15.58;99.39
32181;BME280;19172;51.504;3.894;2022-11-18T00:21:56;99285.41;;;15.76;99.11
32181;BME280;19172;51.504;3.894;2022-11-18T00:24:25;99289.66;;;15.60;98.29
32181;BME280;19172;51.504;3.894;2022-11-18T00:26:53;99288.19;;;15.73;98.25
32181;BME280;19172;51.504;3.894;2022-11-18T00:29:22;99296.09;;;15.74;97.47
32181;BME280;19172;51.504;3.894;2022-11-18T00:31:56;99304.50;;;15.65;97.06
32181;BME280;19172;51.504;3.894;2022-11-18T00:34:24;99306.75;;;15.74;97.51
32181;BME280;19172;51.504;3.894;2022-11-18T00:36:52;99311.91;;;15.79;97.77
32181;BME280;19172;51.504;3.894;2022-11-18T00:39:20;99316.34;;;15.36;97.38
32181;BME280;19172;51.504;3.894;2022-11-18T00:41:49;99317.34;;;15.34;98.33
32181;BME280;19172;51.504;3.894;2022-11-18T00:44:35;99316.38;;;15.35;98.92
32181;BME280;19172;51.504;3.894;2022-11-18T00:47:03;99321.91;;;15.30;99.85
32181;BME280;19172;51.504;3.894;2022-11-18T00:49:31;99332.19;;;15.40;100.00
32181;BME280;19172;51.504;3.894;2022-11-18T00:51:59;99339.56;;;15.55;100.00
32181;BME280;19172;51.504;3.894;2022-11-18T00:54:27;99333.81;;;15.44;100.00
32181;BME280;19172;51.504;3.894;2022-11-18T00:56:55;99329.00;;;15.53;99.92
32181;BME280;19172;51.504;3.894;2022-11-18T00:59:25;99335.78;;;15.38;99.25
32181;BME280;19172;51.504;3.894;2022-11-18T01:01:53;99329.66;;;15.36;99.25
32181;BME280;19172;51.504;3.894;2022-11-18T01:04:21;99329.41;;;15.64;99.72
32181;BME280;19172;51.504;3.894;2022-11-18T01:06:49;99329.53;;;15.61;99.26
32181;BME280;19172;51.504;3.894;2022-11-18T01:09:16;99334.72;;;15.64;98.05
32181;BME280;19172;51.504;3.894;2022-11-18T01:11:44;99332.19;;;15.61;98.19
32181;BME280;19172;51.504;3.894;2022-11-18T01:14:31;99344.34;;;15.47;97.88
32181;BME280;19172;51.504;3.894;2022-11-18T01:16:58;99340.66;;;15.71;98.42
32181;BME280;19172;51.504;3.894;2022-11-18T01:19:26;99341.97;;;15.39;98.04
32181;BME280;19172;51.504;3.894;2022-11-18T01:21:54;99345.84;;;15.54;98.57
32181;BME280;19172;51.504;3.894;2022-11-18T01:24:23;99347.84;;;15.25;98.40
32181;BME280;19172;51.504;3.894;2022-11-18T01:26:50;99349.22;;;15.57;98.63
32181;BME280;19172;51.504;3.894;2022-11-18T01:29:18;99352.75;;;15.36;99.69
32181;BME280;19172;51.504;3.894;2022-11-18T01:31:46;99362.53;;;15.35;100.00
32181;BME280;19172;51.504;3.894;2022-11-18T01:34:34;99374.72;;;15.19;100.00
32181;BME280;19172;51.504;3.894;2022-11-18T01:37:02;99365.66;;;15.47;100.00
32181;BME280;19172;51.504;3.894;2022-11-18T01:39:30;99375.44;;;15.46;100.00
32181;BME280;19172;51.504;3.894;2022-11-18T01:41:58;99374.00;;;15.38;100.00
32181;BME280;19172;51.504;3.894;2022-11-18T01:47:20;99389.88;;;15.41;100.00
32181;BME280;19172;51.504;3.894;2022-11-18T01:49:48;99386.22;;;15.43;100.00
32181;BME280;19172;51.504;3.894;2022-11-18T01:52:16;99391.81;;;15.59;99.70
32181;BME280;19172;51.504;3.894;2022-11-18T01:54:51;99397.28;;;15.56;99.03
32181;BME280;19172;51.504;3.894;2022-11-18T01:57:23;99399.78;;;15.80;98.39
32181;BME280;19172;51.504;3.894;2022-11-18T01:59:57;99403.56;;;15.31;97.40
32181;BME280;19172;51.504;3.894;2022-11-18T02:02:30;99401.28;;;15.66;98.35
32181;BME280;19172;51.504;3.894;2022-11-18T02:05:02;99413.34;;;15.31;97.31
32181;BME280;19172;51.504;3.894;2022-11-18T02:07:34;99410.47;;;15.59;97.37
32181;BME280;19172;51.504;3.894;2022-11-18T02:10:06;99419.22;;;15.39;97.46
32181;BME280;19172;51.504;3.894;2022-11-18T02:12:36;99421.88;;;15.39;98.35
32181;BME280;19172;51.504;3.894;2022-11-18T02:15:04;99422.16;;;15.55;98.57
32181;BME280;19172;51.504;3.894;2022-11-18T02:17:57;99418.00;;;15.48;98.30
32181;BME280;19172;51.504;3.894;2022-11-18T02:20:46;99426.56;;;15.11;98.29
32181;BME280;19172;51.504;3.894;2022-11-18T02:26:27;99425.91;;;15.51;98.90
32181;BME280;19172;51.504;3.894;2022-11-18T02:29:07;99438.22;;;15.53;98.55
32181;BME280;19172;51.504;3.894;2022-11-18T02:43:06;99449.94;;;15.49;98.47
32181;BME280;19172;51.504;3.894;2022-11-18T02:45:40;99445.97;;;15.36;98.35
32181;BME280;19172;51.504;3.894;2022-11-18T02:48:12;99448.97;;;15.05;99.35
32181;BME280;19172;51.504;3.894;2022-11-18T02:50:43;99450.75;;;15.28;99.83
32181;BME280;19172;51.504;3.894;2022-11-18T02:53:15;99440.22;;;15.02;99.05
32181;BME280;19172;51.504;3.894;2022-11-18T02:55:47;99445.16;;;15.12;100.00
32181;BME280;19172;51.504;3.894;2022-11-18T02:58:19;99451.31;;;15.13;100.00
32181;BME280;19172;51.504;3.894;2022-11-18T03:00:58;99453.53;;;15.02;100.00
32181;BME280;19172;51.504;3.894;2022-11-18T03:08:47;99450.34;;;15.15;100.00
32181;BME280;19172;51.504;3.894;2022-11-18T03:11:20;99459.94;;;15.19;100.00
32181;BME280;19172;51.504;3.894;2022-11-18T03:14:15;99467.56;;;15.52;100.00
32181;BME280;19172;51.504;3.894;2022-11-18T03:22:50;99472.09;;;15.03;100.00
32181;BME280;19172;51.504;3.894;2022-11-18T03:30:44;99487.19;;;15.72;99.47
32181;BME280;19172;51.504;3.894;2022-11-18T03:33:18;99481.00;;;15.25;97.78
32181;BME280;19172;51.504;3.894;2022-11-18T03:35:50;99488.13;;;15.48;98.98
32181;BME280;19172;51.504;3.894;2022-11-18T03:38:27;99492.25;;;15.57;99.50
32181;BME280;19172;51.504;3.894;2022-11-18T03:41:02;99491.44;;;15.76;98.89
32181;BME280;19172;51.504;3.894;2022-11-18T03:43:37;99493.94;;;15.59;98.32
32181;BME280;19172;51.504;3.894;2022-11-18T03:46:17;99499.84;;;15.44;98.35
32181;BME280;19172;51.504;3.894;2022-11-18T03:48:52;99504.03;;;15.03;99.59
32181;BME280;19172;51.504;3.894;2022-11-18T03:51:25;99503.25;;;15.24;99.94
32181;BME280;19172;51.504;3.894;2022-11-18T03:54:00;99509.25;;;15.06;100.00
32181;BME280;19172;51.504;3.894;2022-11-18T03:56:36;99508.88;;;15.40;100.00
32181;BME280;19172;51.504;3.894;2022-11-18T03:59:21;99517.84;;;15.14;100.00
32181;BME280;19172;51.504;3.894;2022-11-18T04:04:33;99520.91;;;14.79;99.26
32181;BME280;19172;51.504;3.894;2022-11-18T04:07:28;99530.41;;;15.09;99.89
32181;BME280;19172;51.504;3.894;2022-11-18T04:09:58;99532.88;;;15.15;99.03
32181;BME280;19172;51.504;3.894;2022-11-18T04:12:32;99526.47;;;14.71;99.83
32181;BME280;19172;51.504;3.894;2022-11-18T04:15:02;99537.63;;;14.82;100.00
32181;BME280;19172;51.504;3.894;2022-11-18T04:17:30;99543.72;;;14.61;100.00
32181;BME280;19172;51.504;3.894;2022-11-18T04:19:58;99539.91;;;14.68;100.00
32181;BME280;19172;51.504;3.894;2022-11-18T04:22:25;99544.06;;;15.00;100.00
32181;BME280;19172;51.504;3.894;2022-11-18T04:24:53;99540.53;;;15.00;100.00
32181;BME280;19172;51.504;3.894;2022-11-18T04:27:21;99551.19;;;15.00;100.00
32181;BME280;19172;51.504;3.894;2022-11-18T04:29:49;99561.69;;;14.79;100.00
32181;BME280;19172;51.504;3.894;2022-11-18T04:32:16;99560.41;;;14.65;100.00
32181;BME280;19172;51.504;3.894;2022-11-18T04:34:44;99565.63;;;14.68;100.00
32181;BME280;19172;51.504;3.894;2022-11-18T04:37:12;99565.34;;;14.77;100.00
32181;BME280;19172;51.504;3.894;2022-11-18T04:39:40;99568.94;;;14.74;100.00
32181;BME280;19172;51.504;3.894;2022-11-18T04:42:07;99559.28;;;14.97;100.00
32181;BME280;19172;51.504;3.894;2022-11-18T04:44:35;99572.44;;;14.76;100.00
32181;BME280;19172;51.504;3.894;2022-11-18T04:47:05;99570.44;;;15.08;100.00
32181;BME280;19172;51.504;3.894;2022-11-18T04:49:34;99578.81;;;15.22;100.00
32181;BME280;19172;51.504;3.894;2022-11-18T04:52:03;99579.00;;;15.16;99.65
32181;BME280;19172;51.504;3.894;2022-11-18T04:54:31;99581.53;;;15.19;98.69
32181;BME280;19172;51.504;3.894;2022-11-18T04:56:59;99585.06;;;15.44;98.33
32181;BME280;19172;51.504;3.894;2022-11-18T04:59:28;99584.63;;;15.08;97.54
32181;BME280;19172;51.504;3.894;2022-11-18T05:01:57;99592.66;;;15.07;98.18
32181;BME280;19172;51.504;3.894;2022-11-18T05:04:30;99589.47;;;14.71;97.67
32181;BME280;19172;51.504;3.894;2022-11-18T05:07:00;99598.53;;;14.92;100.00
32181;BME280;19172;51.504;3.894;2022-11-18T05:09:29;99601.16;;;15.16;100.00
32181;BME280;19172;51.504;3.894;2022-11-18T05:11:59;99605.53;;;14.68;100.00
32181;BME280;19172;51.504;3.894;2022-11-18T05:14:45;99609.28;;;14.89;99.77
32181;BME280;19172;51.504;3.894;2022-11-18T05:17:17;99614.91;;;15.29;100.00
32181;BME280;19172;51.504;3.894;2022-11-18T05:19:45;99609.72;;;15.01;98.11
32181;BME280;19172;51.504;3.894;2022-11-18T05:22:13;99607.38;;;15.17;98.52
32181;BME280;19172;51.504;3.894;2022-11-18T05:24:42;99612.81;;;15.14;97.93
32181;BME280;19172;51.504;3.894;2022-11-18T05:27:11;99619.50;;;15.01;97.08
32181;BME280;19172;51.504;3.894;2022-11-18T05:29:39;99627.53;;;14.99;97.00
32181;BME280;19172;51.504;3.894;2022-11-18T05:32:07;99628.38;;;15.00;97.79
32181;BME280;19172;51.504;3.894;2022-11-18T05:34:35;99630.75;;;15.09;97.72
32181;BME280;19172;51.504;3.894;2022-11-18T05:37:03;99630.09;;;15.27;97.92
32181;BME280;19172;51.504;3.894;2022-11-18T05:39:31;99635.97;;;15.36;97.22
32181;BME280;19172;51.504;3.894;2022-11-18T05:42:01;99638.88;;;15.29;96.94
32181;BME280;19172;51.504;3.894;2022-11-18T05:44:47;99638.84;;;15.30;96.10
32181;BME280;19172;51.504;3.894;2022-11-18T05:47:22;99648.19;;;15.42;95.31
32181;BME280;19172;51.504;3.894;2022-11-18T05:49:51;99651.38;;;15.53;95.13
32181;BME280;19172;51.504;3.894;2022-11-18T05:52:19;99658.03;;;15.40;94.49
32181;BME280;19172;51.504;3.894;2022-11-18T05:54:49;99661.84;;;15.33;93.92
32181;BME280;19172;51.504;3.894;2022-11-18T05:57:17;99664.81;;;15.24;93.71
32181;BME280;19172;51.504;3.894;2022-11-18T05:59:45;99659.91;;;15.63;94.48
32181;BME280;19172;51.504;3.894;2022-11-18T06:02:16;99659.47;;;15.73;93.92
32181;BME280;19172;51.504;3.894;2022-11-18T06:04:57;99657.78;;;15.48;92.97
32181;BME280;19172;51.504;3.894;2022-11-18T06:07:46;99669.84;;;15.58;93.71
32181;BME280;19172;51.504;3.894;2022-11-18T06:10:21;99663.66;;;15.80;93.92
32181;BME280;19172;51.504;3.894;2022-11-18T06:12:55;99671.13;;;15.71;92.96
32181;BME280;19172;51.504;3.894;2022-11-18T06:15:29;99671.44;;;15.63;93.54
32181;BME280;19172;51.504;3.894;2022-11-18T06:18:09;99672.91;;;15.70;92.90
32181;BME280;19172;51.504;3.894;2022-11-18T06:20:40;99677.28;;;15.73;92.16
32181;BME280;19172;51.504;3.894;2022-11-18T06:23:08;99677.69;;;15.85;91.47
32181;BME280;19172;51.504;3.894;2022-11-18T06:25:40;99688.47;;;15.33;91.81
32181;BME280;19172;51.504;3.894;2022-11-18T06:28:11;99686.44;;;15.66;91.94
32181;BME280;19172;51.504;3.894;2022-11-18T06:30:40;99698.22;;;15.59;92.38
32181;BME280;19172;51.504;3.894;2022-11-18T06:33:08;99703.78;;;15.26;92.63
32181;BME280;19172;51.504;3.894;2022-11-18T06:35:36;99701.78;;;15.59;93.53
32181;BME280;19172;51.504;3.894;2022-11-18T06:38:03;99712.69;;;15.52;93.18
32181;BME280;19172;51.504;3.894;2022-11-18T06:40:31;99714.16;;;15.60;93.99
32181;BME280;19172;51.504;3.894;2022-11-18T06:43:08;99713.69;;;15.49;94.71
32181;BME280;19172;51.504;3.894;2022-11-18T06:46:11;99732.28;;;15.24;95.18
32181;BME280;19172;51.504;3.894;2022-11-18T06:49:00;99725.31;;;15.20;96.60
32181;BME280;19172;51.504;3.894;2022-11-18T06:51:29;99731.78;;;15.38;97.38
32181;BME280;19172;51.504;3.894;2022-11-18T06:53:57;99728.97;;;15.43;96.86
32181;BME280;19172;51.504;3.894;2022-11-18T06:56:25;99735.06;;;15.46;96.94
32181;BME280;19172;51.504;3.894;2022-11-18T06:58:56;99736.88;;;15.70;96.79
32181;BME280;19172;51.504;3.894;2022-11-18T07:01:29;99750.50;;;15.36;96.29
32181;BME280;19172;51.504;3.894;2022-11-18T07:03:58;99748.78;;;15.60;96.57
32181;BME280;19172;51.504;3.894;2022-11-18T07:06:29;99753.41;;;15.55;96.04
32181;BME280;19172;51.504;3.894;2022-11-18T07:09:03;99762.25;;;15.82;96.42
32181;BME280;19172;51.504;3.894;2022-11-18T07:11:31;99770.16;;;15.83;95.31
32181;BME280;19172;51.504;3.894;2022-11-18T07:13:59;99777.81;;;15.93;95.11
32181;BME280;19172;51.504;3.894;2022-11-18T07:16:27;99773.97;;;15.52;95.29
32181;BME280;19172;51.504;3.894;2022-11-18T07:18:55;99777.69;;;15.46;95.12
32181;BME280;19172;51.504;3.894;2022-11-18T07:21:26;99780.72;;;15.62;96.11
32181;BME280;19172;51.504;3.894;2022-11-18T07:23:55;99777.16;;;15.35;96.10
32181;BME280;19172;51.504;3.894;2022-11-18T07:26:23;99783.81;;;15.50;96.99
32181;BME280;19172;51.504;3.894;2022-11-18T07:28:52;99785.56;;;15.51;97.60
32181;BME280;19172;51.504;3.894;2022-11-18T07:31:20;99794.94;;;15.62;97.47
32181;BME280;19172;51.504;3.894;2022-11-18T07:33:48;99792.69;;;15.50;97.09
32181;BME280;19172;51.504;3.894;2022-11-18T07:36:18;99789.19;;;15.22;96.61
32181;BME280;19172;51.504;3.894;2022-11-18T07:38:46;99796.44;;;15.43;97.32
32181;BME280;19172;51.504;3.894;2022-11-18T07:41:17;99803.56;;;15.69;97.65
32181;BME280;19172;51.504;3.894;2022-11-18T07:43:46;99806.06;;;15.73;97.04
32181;BME280;19172;51.504;3.894;2022-11-18T07:46:18;99817.50;;;15.77;97.16
32181;BME280;19172;51.504;3.894;2022-11-18T07:48:49;99807.13;;;15.94;96.64
32181;BME280;19172;51.504;3.894;2022-11-18T07:51:20;99807.81;;;15.74;97.17
32181;BME280;19172;51.504;3.894;2022-11-18T07:53:48;99806.59;;;15.06;96.16
32181;BME280;19172;51.504;3.894;2022-11-18T07:56:17;99820.59;;;15.65;98.02
32181;BME280;19172;51.504;3.894;2022-11-18T07:58:45;99823.34;;;15.62;97.96
32181;BME280;19172;51.504;3.894;2022-11-18T08:01:15;99821.94;;;15.52;98.72
32181;BME280;19172;51.504;3.894;2022-11-18T08:03:44;99829.44;;;15.39;98.75
32181;BME280;19172;51.504;3.894;2022-11-18T08:06:15;99833.16;;;15.61;99.49
32181;BME280;19172;51.504;3.894;2022-11-18T08:08:44;99841.56;;;15.75;99.38
32181;BME280;19172;51.504;3.894;2022-11-18T08:11:15;99841.66;;;15.72;99.07
32181;BME280;19172;51.504;3.894;2022-11-18T08:13:50;99835.25;;;15.78;98.51
32181;BME280;19172;51.504;3.894;2022-11-18T08:16:20;99845.13;;;15.74;97.74
32181;BME280;19172;51.504;3.894;2022-11-18T08:18:49;99854.13;;;15.97;97.68
32181;BME280;19172;51.504;3.894;2022-11-18T08:21:19;99858.66;;;15.95;97.68
32181;BME280;19172;51.504;3.894;2022-11-18T08:23:52;99854.81;;;15.77;97.48
32181;BME280;19172;51.504;3.894;2022-11-18T08:26:21;99862.59;;;15.83;97.62
32181;BME280;19172;51.504;3.894;2022-11-18T08:28:49;99858.97;;;15.85;96.59
32181;BME280;19172;51.504;3.894;2022-11-18T08:31:23;99855.22;;;15.91;97.79
32181;BME280;19172;51.504;3.894;2022-11-18T08:33:59;99862.44;;;15.87;98.28
32181;BME280;19172;51.504;3.894;2022-11-18T08:36:30;99855.03;;;15.96;97.65
32181;BME280;19172;51.504;3.894;2022-11-18T08:39:00;99857.97;;;15.63;97.85
32181;BME280;19172;51.504;3.894;2022-11-18T08:41:46;99863.81;;;15.99;98.19
32181;BME280;19172;51.504;3.894;2022-11-18T08:44:15;99860.06;;;16.05;97.78
32181;BME280;19172;51.504;3.894;2022-11-18T08:46:44;99872.78;;;16.21;96.74
32181;BME280;19172;51.504;3.894;2022-11-18T08:49:12;99869.09;;;16.01;96.74
32181;BME280;19172;51.504;3.894;2022-11-18T08:51:40;99878.00;;;16.00;97.03
32181;BME280;19172;51.504;3.894;2022-11-18T08:54:08;99887.47;;;16.08;96.99
32181;BME280;19172;51.504;3.894;2022-11-18T08:56:36;99883.66;;;15.91;95.90
32181;BME280;19172;51.504;3.894;2022-11-18T08:59:04;99882.16;;;16.33;96.43
32181;BME280;19172;51.504;3.894;2022-11-18T09:01:32;99885.81;;;16.30;96.28
32181;BME280;19172;51.504;3.894;2022-11-18T09:03:59;99883.84;;;16.35;95.71
32181;BME280;19172;51.504;3.894;2022-11-18T09:06:27;99886.63;;;16.32;95.23
32181;BME280;19172;51.504;3.894;2022-11-18T09:08:55;99886.84;;;16.50;95.15
32181;BME280;19172;51.504;3.894;2022-11-18T09:11:26;99894.06;;;16.48;94.74
32181;BME280;19172;51.504;3.894;2022-11-18T09:13:56;99892.97;;;16.53;94.27
32181;BME280;19172;51.504;3.894;2022-11-18T09:16:44;99902.88;;;16.50;94.13
32181;BME280;19172;51.504;3.894;2022-11-18T09:19:13;99892.72;;;16.11;93.95
32181;BME280;19172;51.504;3.894;2022-11-18T09:22:02;99908.66;;;16.13;94.43
32181;BME280;19172;51.504;3.894;2022-11-18T09:24:31;99908.91;;;16.05;94.57
32181;BME280;19172;51.504;3.894;2022-11-18T09:27:04;99908.56;;;16.16;95.05
32181;BME280;19172;51.504;3.894;2022-11-18T09:29:33;99915.66;;;15.91;95.30
32181;BME280;19172;51.504;3.894;2022-11-18T09:32:01;99910.00;;;16.00;96.41
32181;BME280;19172;51.504;3.894;2022-11-18T09:34:29;99918.78;;;16.03;95.64
32181;BME280;19172;51.504;3.894;2022-11-18T09:36:57;99918.19;;;16.20;95.47
32181;BME280;19172;51.504;3.894;2022-11-18T09:39:25;99918.56;;;15.83;95.33
32181;BME280;19172;51.504;3.894;2022-11-18T09:47:30;99934.53;;;16.11;96.65
32181;BME280;19172;51.504;3.894;2022-11-18T09:55:22;99947.19;;;16.04;98.66
32181;BME280;19172;51.504;3.894;2022-11-18T09:57:54;99944.75;;;15.70;98.35
32181;BME280;19172;51.504;3.894;2022-11-18T10:00:25;99958.13;;;15.97;99.62
32181;BME280;19172;51.504;3.894;2022-11-18T10:05:27;99965.59;;;15.58;100.00
32181;BME280;19172;51.504;3.894;2022-11-18T10:10:54;99962.97;;;15.84;100.00
32181;BME280;19172;51.504;3.894;2022-11-18T10:24:55;99979.91;;;15.55;100.00
32181;BME280;19172;51.504;3.894;2022-11-18T10:27:33;99982.31;;;15.91;100.00
32181;BME280;19172;51.504;3.894;2022-11-18T10:30:01;99976.66;;;16.00;100.00
32181;BME280;19172;51.504;3.894;2022-11-18T10:32:29;99985.13;;;16.12;100.00
32181;BME280;19172;51.504;3.894;2022-11-18T10:34:58;99981.22;;;16.22;100.00
32181;BME280;19172;51.504;3.894;2022-11-18T10:37:32;99985.47;;;16.28;100.00
32181;BME280;19172;51.504;3.894;2022-11-18T10:40:27;99985.59;;;16.25;100.00
32181;BME280;19172;51.504;3.894;2022-11-18T10:42:55;99987.22;;;16.29;100.00
32181;BME280;19172;51.504;3.894;2022-11-18T10:45:29;99984.72;;;16.24;100.00
32181;BME280;19172;51.504;3.894;2022-11-18T10:50:49;99999.03;;;16.22;100.00
32181;BME280;19172;51.504;3.894;2022-11-18T10:53:34;99992.72;;;15.72;99.75
32181;BME280;19172;51.504;3.894;2022-11-18T10:56:08;99999.81;;;16.50;100.00
32181;BME280;19172;51.504;3.894;2022-11-18T10:58:44;100003.31;;;16.01;99.12
32181;BME280;19172;51.504;3.894;2022-11-18T11:01:25;100006.31;;;15.91;100.00
32181;BME280;19172;51.504;3.894;2022-11-18T11:06:36;100009.75;;;15.94;100.00
32181;BME280;19172;51.504;3.894;2022-11-18T11:12:11;100008.03;;;16.44;100.00
32181;BME280;19172;51.504;3.894;2022-11-18T11:14:55;100014.88;;;16.26;100.00
32181;BME280;19172;51.504;3.894;2022-11-18T11:17:35;100016.09;;;16.69;100.00
32181;BME280;19172;51.504;3.894;2022-11-18T11:22:44;100015.56;;;16.84;98.99
32181;BME280;19172;51.504;3.894;2022-11-18T11:25:19;100026.53;;;15.98;97.52
32181;BME280;19172;51.504;3.894;2022-11-18T11:28:05;100022.22;;;15.66;97.70
32181;BME280;19172;51.504;3.894;2022-11-18T11:31:18;100020.34;;;16.23;99.41
32181;BME280;19172;51.504;3.894;2022-11-18T11:33:53;100028.75;;;16.11;100.00
32181;BME280;19172;51.504;3.894;2022-11-18T11:36:38;100034.56;;;16.24;100.00
32181;BME280;19172;51.504;3.894;2022-11-18T11:39:26;100033.50;;;16.02;100.00
32181;BME280;19172;51.504;3.894;2022-11-18T11:44:51;100023.25;;;15.60;100.00
32181;BME280;19172;51.504;3.894;2022-11-18T11:50:45;100035.13;;;15.19;100.00
32181;BME280;19172;51.504;3.894;2022-11-18T11:56:31;100040.03;;;16.19;100.00
32181;BME280;19172;51.504;3.894;2022-11-18T12:04:41;100044.28;;;16.25;100.00
32181;BME280;19172;51.504;3.894;2022-11-18T12:07:21;100047.47;;;15.82;100.00
32181;BME280;19172;51.504;3.894;2022-11-18T12:10:21;100053.94;;;15.44;100.00
32181;BME280;19172;51.504;3.894;2022-11-18T12:18:21;100058.59;;;16.22;100.00
32181;BME280;19172;51.504;3.894;2022-11-18T12:20:53;100054.53;;;16.37;100.00
32181;BME280;19172;51.504;3.894;2022-11-18T12:23:23;100061.09;;;16.53;100.00
32181;BME280;19172;51.504;3.894;2022-11-18T12:26:01;100068.38;;;16.22;100.00
32181;BME280;19172;51.504;3.894;2022-11-18T12:28:38;100064.59;;;16.29;100.00
32181;BME280;19172;51.504;3.894;2022-11-18T12:36:39;100069.38;;;16.46;100.00
32181;BME280;19172;51.504;3.894;2022-11-18T12:42:00;100075.88;;;16.65;100.00
32181;BME280;19172;51.504;3.894;2022-11-18T12:44:49;100078.94;;;16.53;100.00
32181;BME280;19172;51.504;3.894;2022-11-18T12:50:13;100079.91;;;16.76;100.00
32181;BME280;19172;51.504;3.894;2022-11-18T12:55:19;100084.50;;;16.19;100.00
32181;BME280;19172;51.504;3.894;2022-11-18T12:57:48;100085.66;;;16.64;100.00
32181;BME280;19172;51.504;3.894;2022-11-18T13:03:00;100088.81;;;16.75;100.00
32181;BME280;19172;51.504;3.894;2022-11-18T13:05:32;100083.38;;;16.78;100.00
32181;BME280;19172;51.504;3.894;2022-11-18T13:08:11;100091.72;;;16.69;100.00
32181;BME280;19172;51.504;3.894;2022-11-18T13:13:23;100094.38;;;16.15;100.00
32181;BME280;19172;51.504;3.894;2022-11-18T13:15:54;100088.81;;;16.75;100.00
32181;BME280;19172;51.504;3.894;2022-11-18T13:18:51;100096.66;;;16.81;100.00
32181;BME280;19172;51.504;3.894;2022-11-18T13:21:22;100097.91;;;16.96;100.00
32181;BME280;19172;51.504;3.894;2022-11-18T13:24:14;100102.84;;;16.82;100.00
32181;BME280;19172;51.504;3.894;2022-11-18T13:26:44;100104.81;;;16.77;100.00
32181;BME280;19172;51.504;3.894;2022-11-18T13:32:18;100103.81;;;16.79;100.00
32181;BME280;19172;51.504;3.894;2022-11-18T13:35:14;100111.72;;;16.82;100.00
32181;BME280;19172;51.504;3.894;2022-11-18T13:40:37;100117.25;;;16.50;100.00
32181;BME280;19172;51.504;3.894;2022-11-18T13:43:10;100114.47;;;17.06;100.00
32181;BME280;19172;51.504;3.894;2022-11-18T13:45:39;100124.44;;;17.01;100.00
32181;BME280;19172;51.504;3.894;2022-11-18T13:48:12;100117.69;;;17.15;100.00
32181;BME280;19172;51.504;3.894;2022-11-18T13:50:47;100117.72;;;17.14;100.00
32181;BME280;19172;51.504;3.894;2022-11-18T13:58:44;100126.41;;;16.69;100.00
32181;BME280;19172;51.504;3.894;2022-11-18T14:01:37;100132.53;;;16.98;100.00
32181;BME280;19172;51.504;3.894;2022-11-18T14:04:21;100139.59;;;17.00;99.34
32181;BME280;19172;51.504;3.894;2022-11-18T14:06:50;100133.00;;;17.35;99.79
32181;BME280;19172;51.504;3.894;2022-11-18T14:09:29;100138.22;;;17.38;98.53
32181;BME280;19172;51.504;3.894;2022-11-18T14:12:23;100135.97;;;17.51;98.05
32181;BME280;19172;51.504;3.894;2022-11-18T14:14:51;100137.84;;;17.24;97.77
32181;BME280;19172;51.504;3.894;2022-11-18T14:17:24;100132.28;;;17.30;98.08
32181;BME280;19172;51.504;3.894;2022-11-18T14:19:57;100141.31;;;17.01;97.79
32181;BME280;19172;51.504;3.894;2022-11-18T14:22:28;100139.41;;;17.29;98.29
32181;BME280;19172;51.504;3.894;2022-11-18T14:25:18;100144.81;;;17.53;97.79
32181;BME280;19172;51.504;3.894;2022-11-18T14:27:49;100144.56;;;17.60;96.69
32181;BME280;19172;51.504;3.894;2022-11-18T14:30:36;100153.91;;;17.72;96.16
32181;BME280;19172;51.504;3.894;2022-11-18T14:35:32;100157.34;;;17.75;95.17
32181;BME280;19172;51.504;3.894;2022-11-18T14:38:11;100157.31;;;17.77;94.40
32181;BME280;19172;51.504;3.894;2022-11-18T14:41:05;100163.03;;;17.66;94.31
32181;BME280;19172;51.504;3.894;2022-11-18T14:43:33;100163.75;;;17.46;94.52
32181;BME280;19172;51.504;3.894;2022-11-18T14:46:05;100169.09;;;17.46;94.37
32181;BME280;19172;51.504;3.894;2022-11-18T14:48:34;100165.19;;;17.57;94.59
32181;BME280;19172;51.504;3.894;2022-11-18T14:51:02;100165.94;;;17.60;95.24
32181;BME280;19172;51.504;3.894;2022-11-18T14:53:29;100172.47;;;17.76;95.64
32181;BME280;19172;51.504;3.894;2022-11-18T14:55:58;100176.03;;;17.77;94.52
32181;BME280;19172;51.504;3.894;2022-11-18T14:58:26;100174.75;;;17.37;95.62
32181;BME280;19172;51.504;3.894;2022-11-18T15:00:54;100179.34;;;17.09;97.92
32181;BME280;19172;51.504;3.894;2022-11-18T15:03:22;100175.78;;;17.09;98.47
32181;BME280;19172;51.504;3.894;2022-11-18T15:05:50;100185.31;;;17.42;97.86
32181;BME280;19172;51.504;3.894;2022-11-18T15:08:18;100190.38;;;17.25;97.50
32181;BME280;19172;51.504;3.894;2022-11-18T15:10:46;100191.03;;;17.56;97.90
32181;BME280;19172;51.504;3.894;2022-11-18T15:13:14;100189.38;;;17.52;98.24
32181;BME280;19172;51.504;3.894;2022-11-18T15:15:41;100195.50;;;17.56;97.49
32181;BME280;19172;51.504;3.894;2022-11-18T15:18:09;100196.13;;;17.64;97.11
32181;BME280;19172;51.504;3.894;2022-11-18T15:20:37;100195.88;;;17.45;96.64
32181;BME280;19172;51.504;3.894;2022-11-18T15:23:04;100202.72;;;17.52;96.89
32181;BME280;19172;51.504;3.894;2022-11-18T15:25:32;100190.91;;;17.34;95.78
32181;BME280;19172;51.504;3.894;2022-11-18T15:28:00;100203.63;;;17.28;98.33
32181;BME280;19172;51.504;3.894;2022-11-18T15:30:28;100200.47;;;17.41;99.47
32181;BME280;19172;51.504;3.894;2022-11-18T15:32:55;100213.50;;;17.26;99.18